sensor_id;sensor_type;location;lat;lon;timestamp;P1;durP1;ratioP1;P2;durP2;ratioP2
12908;SDS011;6522;49.622;6.126;2023-02-15T00:01:09;44.38;;;26.30;;
12908;SDS011;6522;49.622;6.126;2023-02-15T00:03:55;48.05;;;27.70;;
12908;SDS011;6522;49.622;6.126;2023-02-15T00:06:42;45.17;;;32.53;;
12908;SDS011;6522;49.622;6.126;2023-02-15T00:09:28;45.38;;;33.92;;
12908;SDS011;6522;49.622;6.126;2023-02-15T00:12:15;50.83;;;32.60;;
12908;SDS011;6522;49.622;6.126;2023-02-15T00:15:02;42.33;;;33.53;;
12908;SDS011;6522;49.622;6.126;2023-02-15T00:17:49;47.53;;;35.13;;
12908;SDS011;6522;49.622;6.126;2023-02-15T00:20:36;46.05;;;27.85;;
12908;SDS011;6522;49.622;6.126;2023-02-15T00:23:22;48.15;;;29.90;;
12908;SDS011;6522;49.622;6.126;2023-02-15T00:26:10;45.80;;;33.72;;
12908;SDS011;6522;49.622;6.126;2023-02-15T00:28:56;41.08;;;34.25;;
12908;SDS011;6522;49.622;6.126;2023-02-15T00:31:43;43.35;;;27.83;;
12908;SDS011;6522;49.622;6.126;2023-02-15T00:34:29;42.33;;;28.92;;
12908;SDS011;6522;49.622;6.126;2023-02-15T00:37:16;48.55;;;33.05;;
12908;SDS011;6522;49.622;6.126;2023-02-15T00:40:03;50.72;;;29.50;;
12908;SDS011;6522;49.622;6.126;2023-02-15T00:42:50;46.05;;;28.50;;
12908;SDS011;6522;49.622;6.126;2023-02-15T00:45:36;49.63;;;34.50;;
12908;SDS011;6522;49.622;6.126;2023-02-15T00:48:23;51.05;;;35.63;;
12908;SDS011;6522;49.622;6.126;2023-02-15T00:51:10;47.40;;;35.08;;
12908;SDS011;6522;49.622;6.126;2023-02-15T00:53:57;49.13;;;30.55;;
12908;SDS011;6522;49.622;6.126;2023-02-15T00:56:44;44.20;;;28.98;;
12908;SDS011;6522;49.622;6.126;2023-02-15T00:59:31;48.70;;;29.08;;
12908;SDS011;6522;49.622;6.126;2023-02-15T01:02:18;48.08;;;29.60;;
12908;SDS011;6522;49.622;6.126;2023-02-15T01:05:04;40.97;;;31.10;;
12908;SDS011;6522;49.622;6.126;2023-02-15T01:07:51;47.30;;;31.08;;
12908;SDS011;6522;49.622;6.126;2023-02-15T01:10:38;48.67;;;32.88;;
12908;SDS011;6522;49.622;6.126;2023-02-15T01:13:25;44.47;;;33.00;;
12908;SDS011;6522;49.622;6.126;2023-02-15T01:16:11;43.08;;;32.55;;
12908;SDS011;6522;49.622;6.126;2023-02-15T01:18:58;51.63;;;36.92;;
12908;SDS011;6522;49.622;6.126;2023-02-15T01:21:44;46.40;;;36.28;;
12908;SDS011;6522;49.622;6.126;2023-02-15T01:24:31;49.17;;;34.53;;
12908;SDS011;6522;49.622;6.126;2023-02-15T01:27:18;44.35;;;34.80;;
12908;SDS011;6522;49.622;6.126;2023-02-15T01:30:05;46.63;;;36.30;;
12908;SDS011;6522;49.622;6.126;2023-02-15T01:32:52;47.45;;;35.42;;
12908;SDS011;6522;49.622;6.126;2023-02-15T01:35:39;46.42;;;35.75;;
12908;SDS011;6522;49.622;6.126;2023-02-15T01:38:25;48.25;;;37.00;;
12908;SDS011;6522;49.622;6.126;2023-02-15T01:41:12;61.88;;;43.63;;
12908;SDS011;6522;49.622;6.126;2023-02-15T01:47:41;53.40;;;40.12;;
12908;SDS011;6522;49.622;6.126;2023-02-15T01:53:05;51.28;;;35.75;;
12908;SDS011;6522;49.622;6.126;2023-02-15T01:55:51;48.00;;;34.28;;
12908;SDS011;6522;49.622;6.126;2023-02-15T01:58:37;40.78;;;32.10;;
12908;SDS011;6522;49.622;6.126;2023-02-15T02:01:23;44.28;;;33.95;;
12908;SDS011;6522;49.622;6.126;2023-02-15T02:04:15;45.15;;;32.33;;
12908;SDS011;6522;49.622;6.126;2023-02-15T02:07:00;48.47;;;35.63;;
12908;SDS011;6522;49.622;6.126;2023-02-15T02:09:48;49.78;;;37.28;;
12908;SDS011;6522;49.622;6.126;2023-02-15T02:12:34;45.38;;;33.00;;
12908;SDS011;6522;49.622;6.126;2023-02-15T02:18:11;45.35;;;36.13;;
12908;SDS011;6522;49.622;6.126;2023-02-15T02:24:21;55.42;;;32.38;;
12908;SDS011;6522;49.622;6.126;2023-02-15T02:27:18;54.35;;;33.55;;
12908;SDS011;6522;49.622;6.126;2023-02-15T02:36:00;56.92;;;37.47;;
12908;SDS011;6522;49.622;6.126;2023-02-15T02:41:50;65.78;;;42.42;;
12908;SDS011;6522;49.622;6.126;2023-02-15T02:44:40;69.22;;;45.40;;
12908;SDS011;6522;49.622;6.126;2023-02-15T02:47:23;61.35;;;44.83;;
12908;SDS011;6522;49.622;6.126;2023-02-15T02:50:12;66.00;;;46.28;;
12908;SDS011;6522;49.622;6.126;2023-02-15T02:52:57;77.47;;;46.03;;
12908;SDS011;6522;49.622;6.126;2023-02-15T02:58:50;61.75;;;44.55;;
12908;SDS011;6522;49.622;6.126;2023-02-15T03:04:30;71.35;;;47.45;;
12908;SDS011;6522;49.622;6.126;2023-02-15T03:07:16;74.97;;;49.60;;
12908;SDS011;6522;49.622;6.126;2023-02-15T03:10:03;69.50;;;46.92;;
12908;SDS011;6522;49.622;6.126;2023-02-15T03:12:49;68.82;;;45.33;;
12908;SDS011;6522;49.622;6.126;2023-02-15T03:15:36;64.78;;;45.10;;
12908;SDS011;6522;49.622;6.126;2023-02-15T03:18:45;64.53;;;40.45;;
12908;SDS011;6522;49.622;6.126;2023-02-15T03:22:18;69.15;;;45.95;;
12908;SDS011;6522;49.622;6.126;2023-02-15T03:24:21;72.82;;;44.35;;
12908;SDS011;6522;49.622;6.126;2023-02-15T03:27:06;69.78;;;43.15;;
12908;SDS011;6522;49.622;6.126;2023-02-15T03:29:53;59.30;;;41.83;;
12908;SDS011;6522;49.622;6.126;2023-02-15T03:32:39;60.75;;;40.22;;
12908;SDS011;6522;49.622;6.126;2023-02-15T03:35:26;50.88;;;37.67;;
12908;SDS011;6522;49.622;6.126;2023-02-15T03:38:13;46.35;;;28.67;;
12908;SDS011;6522;49.622;6.126;2023-02-15T03:40:59;49.47;;;32.97;;
12908;SDS011;6522;49.622;6.126;2023-02-15T03:43:56;46.40;;;33.70;;
12908;SDS011;6522;49.622;6.126;2023-02-15T03:46:52;46.88;;;35.33;;
12908;SDS011;6522;49.622;6.126;2023-02-15T03:49:48;44.60;;;34.42;;
12908;SDS011;6522;49.622;6.126;2023-02-15T03:52:31;46.65;;;30.37;;
12908;SDS011;6522;49.622;6.126;2023-02-15T03:55:17;41.45;;;28.83;;
12908;SDS011;6522;49.622;6.126;2023-02-15T03:58:04;40.30;;;30.58;;
12908;SDS011;6522;49.622;6.126;2023-02-15T04:02:12;52.72;;;33.40;;
12908;SDS011;6522;49.622;6.126;2023-02-15T04:04:29;42.08;;;28.23;;
12908;SDS011;6522;49.622;6.126;2023-02-15T04:07:14;47.22;;;34.53;;
12908;SDS011;6522;49.622;6.126;2023-02-15T04:10:01;45.28;;;31.17;;
12908;SDS011;6522;49.622;6.126;2023-02-15T04:13:06;62.90;;;36.13;;
12908;SDS011;6522;49.622;6.126;2023-02-15T04:15:53;62.78;;;35.00;;
12908;SDS011;6522;49.622;6.126;2023-02-15T04:18:52;56.88;;;40.28;;
12908;SDS011;6522;49.622;6.126;2023-02-15T04:21:57;69.05;;;41.75;;
12908;SDS011;6522;49.622;6.126;2023-02-15T04:25:02;73.15;;;50.05;;
12908;SDS011;6522;49.622;6.126;2023-02-15T04:28:01;57.85;;;41.20;;
12908;SDS011;6522;49.622;6.126;2023-02-15T04:30:48;59.40;;;35.40;;
12908;SDS011;6522;49.622;6.126;2023-02-15T04:33:35;55.25;;;36.78;;
12908;SDS011;6522;49.622;6.126;2023-02-15T04:36:21;55.85;;;40.12;;
12908;SDS011;6522;49.622;6.126;2023-02-15T04:39:08;59.33;;;39.45;;
12908;SDS011;6522;49.622;6.126;2023-02-15T04:41:55;62.50;;;39.20;;
12908;SDS011;6522;49.622;6.126;2023-02-15T04:44:42;59.28;;;44.40;;
12908;SDS011;6522;49.622;6.126;2023-02-15T04:47:29;61.83;;;37.70;;
12908;SDS011;6522;49.622;6.126;2023-02-15T04:50:16;62.47;;;40.50;;
12908;SDS011;6522;49.622;6.126;2023-02-15T04:53:03;59.25;;;41.50;;
12908;SDS011;6522;49.622;6.126;2023-02-15T04:55:49;61.53;;;41.60;;
12908;SDS011;6522;49.622;6.126;2023-02-15T04:58:36;64.80;;;42.45;;
12908;SDS011;6522;49.622;6.126;2023-02-15T05:01:23;60.88;;;40.72;;
12908;SDS011;6522;49.622;6.126;2023-02-15T05:04:10;61.47;;;37.90;;
12908;SDS011;6522;49.622;6.126;2023-02-15T05:06:57;54.65;;;33.15;;
12908;SDS011;6522;49.622;6.126;2023-02-15T05:09:43;57.55;;;36.22;;
12908;SDS011;6522;49.622;6.126;2023-02-15T05:12:30;60.33;;;41.17;;
12908;SDS011;6522;49.622;6.126;2023-02-15T05:15:17;58.05;;;36.10;;
12908;SDS011;6522;49.622;6.126;2023-02-15T05:18:04;65.18;;;39.50;;
12908;SDS011;6522;49.622;6.126;2023-02-15T05:20:51;57.95;;;38.80;;
12908;SDS011;6522;49.622;6.126;2023-02-15T05:23:37;66.07;;;40.95;;
12908;SDS011;6522;49.622;6.126;2023-02-15T05:26:24;62.80;;;39.85;;
12908;SDS011;6522;49.622;6.126;2023-02-15T05:29:29;55.58;;;39.00;;
12908;SDS011;6522;49.622;6.126;2023-02-15T05:32:16;62.40;;;40.75;;
12908;SDS011;6522;49.622;6.126;2023-02-15T05:35:02;70.43;;;38.70;;
12908;SDS011;6522;49.622;6.126;2023-02-15T05:37:49;72.37;;;45.30;;
12908;SDS011;6522;49.622;6.126;2023-02-15T05:40:36;72.57;;;39.97;;
12908;SDS011;6522;49.622;6.126;2023-02-15T05:43:23;159.23;;;49.42;;
12908;SDS011;6522;49.622;6.126;2023-02-15T05:46:10;125.28;;;44.55;;
12908;SDS011;6522;49.622;6.126;2023-02-15T05:48:57;112.00;;;55.28;;
12908;SDS011;6522;49.622;6.126;2023-02-15T05:51:44;85.18;;;42.65;;
12908;SDS011;6522;49.622;6.126;2023-02-15T05:54:30;99.62;;;48.97;;
12908;SDS011;6522;49.622;6.126;2023-02-15T05:57:17;84.05;;;46.90;;
12908;SDS011;6522;49.622;6.126;2023-02-15T06:00:04;94.95;;;46.58;;
12908;SDS011;6522;49.622;6.126;2023-02-15T06:02:51;85.80;;;44.05;;
12908;SDS011;6522;49.622;6.126;2023-02-15T06:05:37;84.43;;;43.20;;
12908;SDS011;6522;49.622;6.126;2023-02-15T06:08:24;75.75;;;40.00;;
12908;SDS011;6522;49.622;6.126;2023-02-15T06:11:11;65.03;;;39.03;;
12908;SDS011;6522;49.622;6.126;2023-02-15T06:13:58;110.03;;;43.75;;
12908;SDS011;6522;49.622;6.126;2023-02-15T06:16:44;75.12;;;38.88;;
12908;SDS011;6522;49.622;6.126;2023-02-15T06:19:31;80.47;;;43.47;;
12908;SDS011;6522;49.622;6.126;2023-02-15T06:22:18;60.88;;;38.50;;
12908;SDS011;6522;49.622;6.126;2023-02-15T06:25:05;62.28;;;40.45;;
12908;SDS011;6522;49.622;6.126;2023-02-15T06:27:52;104.50;;;43.17;;
12908;SDS011;6522;49.622;6.126;2023-02-15T06:30:39;68.75;;;37.47;;
12908;SDS011;6522;49.622;6.126;2023-02-15T06:33:26;62.72;;;38.38;;
12908;SDS011;6522;49.622;6.126;2023-02-15T06:36:13;66.22;;;37.38;;
12908;SDS011;6522;49.622;6.126;2023-02-15T06:39:00;67.72;;;37.03;;
12908;SDS011;6522;49.622;6.126;2023-02-15T06:41:47;68.57;;;40.80;;
12908;SDS011;6522;49.622;6.126;2023-02-15T06:44:33;62.08;;;34.45;;
12908;SDS011;6522;49.622;6.126;2023-02-15T06:47:21;92.55;;;41.70;;
12908;SDS011;6522;49.622;6.126;2023-02-15T06:50:07;155.52;;;43.50;;
12908;SDS011;6522;49.622;6.126;2023-02-15T06:52:58;148.00;;;46.00;;
12908;SDS011;6522;49.622;6.126;2023-02-15T06:55:44;77.70;;;37.15;;
12908;SDS011;6522;49.622;6.126;2023-02-15T06:58:31;130.15;;;44.50;;
12908;SDS011;6522;49.622;6.126;2023-02-15T07:01:18;99.47;;;40.30;;
12908;SDS011;6522;49.622;6.126;2023-02-15T07:04:05;69.20;;;38.20;;
12908;SDS011;6522;49.622;6.126;2023-02-15T07:06:51;56.58;;;37.45;;
12908;SDS011;6522;49.622;6.126;2023-02-15T07:09:38;71.53;;;35.58;;
12908;SDS011;6522;49.622;6.126;2023-02-15T07:12:25;75.87;;;37.17;;
12908;SDS011;6522;49.622;6.126;2023-02-15T07:15:30;94.62;;;40.47;;
12908;SDS011;6522;49.622;6.126;2023-02-15T07:18:17;76.87;;;39.25;;
12908;SDS011;6522;49.622;6.126;2023-02-15T07:21:04;175.03;;;46.13;;
12908;SDS011;6522;49.622;6.126;2023-02-15T07:23:51;280.27;;;62.75;;
12908;SDS011;6522;49.622;6.126;2023-02-15T07:26:37;146.23;;;41.90;;
12908;SDS011;6522;49.622;6.126;2023-02-15T07:29:24;90.47;;;38.80;;
12908;SDS011;6522;49.622;6.126;2023-02-15T07:32:11;130.87;;;44.85;;
12908;SDS011;6522;49.622;6.126;2023-02-15T07:34:58;76.43;;;38.60;;
12908;SDS011;6522;49.622;6.126;2023-02-15T07:37:44;206.45;;;52.40;;
12908;SDS011;6522;49.622;6.126;2023-02-15T07:40:31;83.10;;;36.63;;
12908;SDS011;6522;49.622;6.126;2023-02-15T07:43:18;110.32;;;38.85;;
12908;SDS011;6522;49.622;6.126;2023-02-15T07:46:06;118.55;;;41.45;;
12908;SDS011;6522;49.622;6.126;2023-02-15T07:48:52;235.88;;;52.05;;
12908;SDS011;6522;49.622;6.126;2023-02-15T07:51:39;136.30;;;41.10;;
12908;SDS011;6522;49.622;6.126;2023-02-15T07:54:25;84.43;;;38.63;;
12908;SDS011;6522;49.622;6.126;2023-02-15T07:57:12;75.62;;;33.45;;
12908;SDS011;6522;49.622;6.126;2023-02-15T07:59:59;82.97;;;35.40;;
12908;SDS011;6522;49.622;6.126;2023-02-15T08:02:49;62.38;;;31.02;;
12908;SDS011;6522;49.622;6.126;2023-02-15T08:05:35;65.45;;;30.77;;
12908;SDS011;6522;49.622;6.126;2023-02-15T08:08:22;86.15;;;32.65;;
12908;SDS011;6522;49.622;6.126;2023-02-15T08:11:19;119.87;;;33.83;;
12908;SDS011;6522;49.622;6.126;2023-02-15T08:14:20;139.23;;;34.50;;
12908;SDS011;6522;49.622;6.126;2023-02-15T08:17:07;85.45;;;34.65;;
12908;SDS011;6522;49.622;6.126;2023-02-15T08:19:54;217.52;;;44.42;;
12908;SDS011;6522;49.622;6.126;2023-02-15T08:22:41;185.45;;;39.88;;
12908;SDS011;6522;49.622;6.126;2023-02-15T08:25:28;123.07;;;37.40;;
12908;SDS011;6522;49.622;6.126;2023-02-15T08:28:15;198.43;;;42.83;;
12908;SDS011;6522;49.622;6.126;2023-02-15T08:31:08;223.85;;;48.00;;
12908;SDS011;6522;49.622;6.126;2023-02-15T08:33:53;228.40;;;40.65;;
12908;SDS011;6522;49.622;6.126;2023-02-15T08:36:39;155.23;;;44.88;;
12908;SDS011;6522;49.622;6.126;2023-02-15T08:39:25;190.93;;;45.17;;
12908;SDS011;6522;49.622;6.126;2023-02-15T08:42:12;139.68;;;45.80;;
12908;SDS011;6522;49.622;6.126;2023-02-15T08:44:59;181.02;;;49.35;;
12908;SDS011;6522;49.622;6.126;2023-02-15T08:47:46;158.02;;;45.55;;
12908;SDS011;6522;49.622;6.126;2023-02-15T08:50:33;248.05;;;65.45;;
12908;SDS011;6522;49.622;6.126;2023-02-15T08:53:20;190.50;;;45.72;;
12908;SDS011;6522;49.622;6.126;2023-02-15T08:56:06;209.93;;;50.22;;
12908;SDS011;6522;49.622;6.126;2023-02-15T08:58:53;331.45;;;51.75;;
12908;SDS011;6522;49.622;6.126;2023-02-15T09:01:40;154.02;;;41.53;;
12908;SDS011;6522;49.622;6.126;2023-02-15T09:04:26;170.40;;;45.65;;
12908;SDS011;6522;49.622;6.126;2023-02-15T09:07:13;226.98;;;47.67;;
12908;SDS011;6522;49.622;6.126;2023-02-15T09:10:00;186.10;;;43.08;;
12908;SDS011;6522;49.622;6.126;2023-02-15T09:12:47;166.88;;;43.60;;
12908;SDS011;6522;49.622;6.126;2023-02-15T09:15:33;128.40;;;36.03;;
12908;SDS011;6522;49.622;6.126;2023-02-15T09:18:21;193.68;;;46.70;;
12908;SDS011;6522;49.622;6.126;2023-02-15T09:21:09;203.02;;;51.83;;
12908;SDS011;6522;49.622;6.126;2023-02-15T09:23:58;95.07;;;37.88;;
12908;SDS011;6522;49.622;6.126;2023-02-15T09:26:45;128.73;;;41.70;;
12908;SDS011;6522;49.622;6.126;2023-02-15T09:29:30;132.35;;;42.17;;
12908;SDS011;6522;49.622;6.126;2023-02-15T09:32:17;84.32;;;38.03;;
12908;SDS011;6522;49.622;6.126;2023-02-15T09:35:04;105.20;;;35.30;;
12908;SDS011;6522;49.622;6.126;2023-02-15T09:37:51;118.32;;;37.58;;
12908;SDS011;6522;49.622;6.126;2023-02-15T09:40:39;169.45;;;48.95;;
12908;SDS011;6522;49.622;6.126;2023-02-15T09:43:38;169.55;;;41.35;;
12908;SDS011;6522;49.622;6.126;2023-02-15T09:52:17;72.75;;;37.65;;
12908;SDS011;6522;49.622;6.126;2023-02-15T10:04:04;79.43;;;34.88;;
12908;SDS011;6522;49.622;6.126;2023-02-15T10:09:45;71.25;;;33.28;;
12908;SDS011;6522;49.622;6.126;2023-02-15T10:12:37;71.85;;;35.70;;
12908;SDS011;6522;49.622;6.126;2023-02-15T10:15:28;70.30;;;35.72;;
12908;SDS011;6522;49.622;6.126;2023-02-15T10:18:16;68.62;;;35.45;;
12908;SDS011;6522;49.622;6.126;2023-02-15T10:26:48;68.30;;;37.67;;
12908;SDS011;6522;49.622;6.126;2023-02-15T10:29:35;59.05;;;35.35;;
12908;SDS011;6522;49.622;6.126;2023-02-15T10:32:27;61.65;;;36.42;;
12908;SDS011;6522;49.622;6.126;2023-02-15T10:35:22;63.65;;;36.33;;
12908;SDS011;6522;49.622;6.126;2023-02-15T10:38:09;55.65;;;34.80;;
12908;SDS011;6522;49.622;6.126;2023-02-15T10:41:03;65.80;;;37.70;;
12908;SDS011;6522;49.622;6.126;2023-02-15T10:44:05;67.03;;;38.70;;
12908;SDS011;6522;49.622;6.126;2023-02-15T10:46:55;60.53;;;34.63;;
12908;SDS011;6522;49.622;6.126;2023-02-15T10:49:42;54.17;;;34.80;;
12908;SDS011;6522;49.622;6.126;2023-02-15T10:52:29;52.13;;;32.25;;
12908;SDS011;6522;49.622;6.126;2023-02-15T10:58:15;48.15;;;31.98;;
12908;SDS011;6522;49.622;6.126;2023-02-15T11:01:11;49.50;;;30.00;;
12908;SDS011;6522;49.622;6.126;2023-02-15T11:07:01;41.60;;;31.60;;
12908;SDS011;6522;49.622;6.126;2023-02-15T11:09:50;41.03;;;30.42;;
12908;SDS011;6522;49.622;6.126;2023-02-15T11:12:35;41.58;;;31.52;;
12908;SDS011;6522;49.622;6.126;2023-02-15T11:15:25;37.47;;;31.73;;
12908;SDS011;6522;49.622;6.126;2023-02-15T11:18:18;35.65;;;31.70;;
12908;SDS011;6522;49.622;6.126;2023-02-15T11:21:04;35.15;;;31.12;;
12908;SDS011;6522;49.622;6.126;2023-02-15T11:23:48;39.00;;;35.00;;
12908;SDS011;6522;49.622;6.126;2023-02-15T11:26:54;42.83;;;35.22;;
12908;SDS011;6522;49.622;6.126;2023-02-15T11:32:18;39.08;;;35.67;;
12908;SDS011;6522;49.622;6.126;2023-02-15T11:35:10;38.80;;;34.85;;
12908;SDS011;6522;49.622;6.126;2023-02-15T11:38:01;38.95;;;35.35;;
12908;SDS011;6522;49.622;6.126;2023-02-15T11:40:47;40.20;;;36.00;;
12908;SDS011;6522;49.622;6.126;2023-02-15T11:43:38;38.92;;;35.63;;
12908;SDS011;6522;49.622;6.126;2023-02-15T11:46:24;40.25;;;36.28;;
12908;SDS011;6522;49.622;6.126;2023-02-15T11:49:26;38.47;;;34.67;;
12908;SDS011;6522;49.622;6.126;2023-02-15T11:52:13;39.38;;;36.13;;
12908;SDS011;6522;49.622;6.126;2023-02-15T11:55:00;37.30;;;34.00;;
12908;SDS011;6522;49.622;6.126;2023-02-15T12:00:45;39.75;;;36.20;;
12908;SDS011;6522;49.622;6.126;2023-02-15T12:03:48;39.17;;;35.60;;
12908;SDS011;6522;49.622;6.126;2023-02-15T12:06:45;38.67;;;35.08;;
12908;SDS011;6522;49.622;6.126;2023-02-15T12:09:34;38.10;;;34.22;;
12908;SDS011;6522;49.622;6.126;2023-02-15T12:12:30;39.15;;;35.67;;
12908;SDS011;6522;49.622;6.126;2023-02-15T12:15:16;38.67;;;35.53;;
12908;SDS011;6522;49.622;6.126;2023-02-15T12:18:03;36.83;;;33.58;;
12908;SDS011;6522;49.622;6.126;2023-02-15T12:20:50;38.83;;;35.25;;
12908;SDS011;6522;49.622;6.126;2023-02-15T12:23:53;38.25;;;34.47;;
12908;SDS011;6522;49.622;6.126;2023-02-15T12:26:39;38.28;;;34.88;;
12908;SDS011;6522;49.622;6.126;2023-02-15T12:29:26;36.00;;;33.13;;
12908;SDS011;6522;49.622;6.126;2023-02-15T12:32:16;38.08;;;34.65;;
12908;SDS011;6522;49.622;6.126;2023-02-15T12:35:27;36.78;;;33.67;;
12908;SDS011;6522;49.622;6.126;2023-02-15T12:38:04;36.50;;;33.22;;
12908;SDS011;6522;49.622;6.126;2023-02-15T12:40:42;37.67;;;34.20;;
12908;SDS011;6522;49.622;6.126;2023-02-15T12:43:33;34.78;;;31.48;;
12908;SDS011;6522;49.622;6.126;2023-02-15T12:46:20;38.72;;;35.00;;
12908;SDS011;6522;49.622;6.126;2023-02-15T12:49:18;36.47;;;33.40;;
12908;SDS011;6522;49.622;6.126;2023-02-15T12:52:05;35.88;;;32.53;;
12908;SDS011;6522;49.622;6.126;2023-02-15T12:54:51;36.15;;;33.08;;
12908;SDS011;6522;49.622;6.126;2023-02-15T12:57:38;36.33;;;33.40;;
12908;SDS011;6522;49.622;6.126;2023-02-15T13:00:26;35.45;;;32.17;;
12908;SDS011;6522;49.622;6.126;2023-02-15T13:03:19;39.20;;;35.70;;
12908;SDS011;6522;49.622;6.126;2023-02-15T13:06:04;37.22;;;33.95;;
12908;SDS011;6522;49.622;6.126;2023-02-15T13:08:52;37.65;;;34.25;;
12908;SDS011;6522;49.622;6.126;2023-02-15T13:11:38;37.25;;;33.75;;
12908;SDS011;6522;49.622;6.126;2023-02-15T13:14:29;36.67;;;33.22;;
12908;SDS011;6522;49.622;6.126;2023-02-15T13:17:11;35.17;;;32.30;;
12908;SDS011;6522;49.622;6.126;2023-02-15T13:20:00;37.42;;;34.13;;
12908;SDS011;6522;49.622;6.126;2023-02-15T13:22:45;36.60;;;33.35;;
12908;SDS011;6522;49.622;6.126;2023-02-15T13:25:33;35.70;;;32.60;;
12908;SDS011;6522;49.622;6.126;2023-02-15T13:28:19;36.80;;;33.53;;
12908;SDS011;6522;49.622;6.126;2023-02-15T13:31:07;37.03;;;33.40;;
12908;SDS011;6522;49.622;6.126;2023-02-15T13:34:00;35.63;;;32.35;;
12908;SDS011;6522;49.622;6.126;2023-02-15T13:36:54;37.50;;;33.88;;
12908;SDS011;6522;49.622;6.126;2023-02-15T13:39:40;36.33;;;33.22;;
12908;SDS011;6522;49.622;6.126;2023-02-15T13:42:26;36.45;;;33.35;;
12908;SDS011;6522;49.622;6.126;2023-02-15T13:56:49;36.70;;;33.40;;
12908;SDS011;6522;49.622;6.126;2023-02-15T13:59:38;35.20;;;31.85;;
12908;SDS011;6522;49.622;6.126;2023-02-15T14:03:12;37.90;;;34.78;;
12908;SDS011;6522;49.622;6.126;2023-02-15T14:05:15;38.33;;;34.35;;
12908;SDS011;6522;49.622;6.126;2023-02-15T14:08:09;36.65;;;33.35;;
12908;SDS011;6522;49.622;6.126;2023-02-15T14:13:44;37.58;;;34.05;;
12908;SDS011;6522;49.622;6.126;2023-02-15T14:16:35;37.63;;;34.38;;
12908;SDS011;6522;49.622;6.126;2023-02-15T14:19:26;35.10;;;32.00;;
12908;SDS011;6522;49.622;6.126;2023-02-15T14:24:59;35.50;;;32.30;;
12908;SDS011;6522;49.622;6.126;2023-02-15T14:30:50;37.13;;;33.78;;
12908;SDS011;6522;49.622;6.126;2023-02-15T14:33:40;36.28;;;33.35;;
12908;SDS011;6522;49.622;6.126;2023-02-15T14:36:26;36.40;;;33.05;;
12908;SDS011;6522;49.622;6.126;2023-02-15T14:39:21;37.38;;;34.20;;
12908;SDS011;6522;49.622;6.126;2023-02-15T14:42:23;35.95;;;32.88;;
12908;SDS011;6522;49.622;6.126;2023-02-15T14:48:04;34.92;;;32.22;;
12908;SDS011;6522;49.622;6.126;2023-02-15T14:50:45;35.30;;;31.92;;
12908;SDS011;6522;49.622;6.126;2023-02-15T14:53:33;35.75;;;32.25;;
12908;SDS011;6522;49.622;6.126;2023-02-15T14:56:22;38.10;;;34.40;;
12908;SDS011;6522;49.622;6.126;2023-02-15T15:01:59;37.65;;;34.25;;
12908;SDS011;6522;49.622;6.126;2023-02-15T15:04:46;35.40;;;32.25;;
12908;SDS011;6522;49.622;6.126;2023-02-15T15:07:41;35.40;;;32.00;;
12908;SDS011;6522;49.622;6.126;2023-02-15T15:16:24;34.92;;;31.73;;
12908;SDS011;6522;49.622;6.126;2023-02-15T15:19:10;34.75;;;31.42;;
12908;SDS011;6522;49.622;6.126;2023-02-15T15:21:56;33.30;;;30.20;;
12908;SDS011;6522;49.622;6.126;2023-02-15T15:36:26;35.42;;;32.10;;
12908;SDS011;6522;49.622;6.126;2023-02-15T15:51:13;34.25;;;30.95;;
12908;SDS011;6522;49.622;6.126;2023-02-15T15:53:49;34.45;;;31.35;;
12908;SDS011;6522;49.622;6.126;2023-02-15T15:56:35;37.00;;;33.40;;
12908;SDS011;6522;49.622;6.126;2023-02-15T15:59:22;34.50;;;31.40;;
12908;SDS011;6522;49.622;6.126;2023-02-15T16:02:10;34.90;;;30.25;;
12908;SDS011;6522;49.622;6.126;2023-02-15T16:05:05;34.47;;;30.88;;
12908;SDS011;6522;49.622;6.126;2023-02-15T16:07:41;32.63;;;29.12;;
12908;SDS011;6522;49.622;6.126;2023-02-15T16:10:28;33.78;;;30.58;;
12908;SDS011;6522;49.622;6.126;2023-02-15T16:13:15;33.60;;;30.60;;
12908;SDS011;6522;49.622;6.126;2023-02-15T16:16:02;35.42;;;31.35;;
12908;SDS011;6522;49.622;6.126;2023-02-15T16:18:49;33.28;;;29.95;;
12908;SDS011;6522;49.622;6.126;2023-02-15T16:21:35;32.90;;;29.42;;
12908;SDS011;6522;49.622;6.126;2023-02-15T16:24:30;33.20;;;29.85;;
12908;SDS011;6522;49.622;6.126;2023-02-15T16:30:19;31.27;;;27.23;;
12908;SDS011;6522;49.622;6.126;2023-02-15T16:33:05;34.45;;;30.90;;
12908;SDS011;6522;49.622;6.126;2023-02-15T16:35:54;35.80;;;30.33;;
12908;SDS011;6522;49.622;6.126;2023-02-15T16:41:30;33.30;;;29.90;;
12908;SDS011;6522;49.622;6.126;2023-02-15T16:44:17;33.17;;;29.35;;
12908;SDS011;6522;49.622;6.126;2023-02-15T16:47:04;33.05;;;29.50;;
12908;SDS011;6522;49.622;6.126;2023-02-15T16:49:51;32.08;;;28.70;;
12908;SDS011;6522;49.622;6.126;2023-02-15T16:52:37;29.90;;;26.58;;
12908;SDS011;6522;49.622;6.126;2023-02-15T16:55:28;33.38;;;27.10;;
12908;SDS011;6522;49.622;6.126;2023-02-15T16:58:13;35.95;;;29.05;;
12908;SDS011;6522;49.622;6.126;2023-02-15T17:00:58;33.63;;;26.20;;
12908;SDS011;6522;49.622;6.126;2023-02-15T17:03:45;32.38;;;27.77;;
12908;SDS011;6522;49.622;6.126;2023-02-15T17:06:31;35.00;;;27.65;;
12908;SDS011;6522;49.622;6.126;2023-02-15T17:09:18;32.03;;;26.48;;
12908;SDS011;6522;49.622;6.126;2023-02-15T17:12:08;33.33;;;28.75;;
12908;SDS011;6522;49.622;6.126;2023-02-15T17:14:53;32.95;;;27.55;;
12908;SDS011;6522;49.622;6.126;2023-02-15T17:17:38;32.33;;;27.15;;
12908;SDS011;6522;49.622;6.126;2023-02-15T17:20:25;33.10;;;26.73;;
12908;SDS011;6522;49.622;6.126;2023-02-15T17:26:15;34.75;;;28.52;;
12908;SDS011;6522;49.622;6.126;2023-02-15T17:31:57;34.10;;;27.25;;
12908;SDS011;6522;49.622;6.126;2023-02-15T17:34:47;33.13;;;26.37;;
12908;SDS011;6522;49.622;6.126;2023-02-15T17:40:24;28.05;;;25.12;;
12908;SDS011;6522;49.622;6.126;2023-02-15T17:43:09;38.10;;;26.87;;
12908;SDS011;6522;49.622;6.126;2023-02-15T17:45:57;30.12;;;25.17;;
12908;SDS011;6522;49.622;6.126;2023-02-15T17:48:43;38.40;;;26.52;;
12908;SDS011;6522;49.622;6.126;2023-02-15T17:51:30;32.50;;;27.65;;
12908;SDS011;6522;49.622;6.126;2023-02-15T17:54:17;36.63;;;28.40;;
12908;SDS011;6522;49.622;6.126;2023-02-15T17:57:22;34.80;;;28.35;;
12908;SDS011;6522;49.622;6.126;2023-02-15T18:00:12;36.88;;;27.62;;
12908;SDS011;6522;49.622;6.126;2023-02-15T18:03:14;35.15;;;26.85;;
12908;SDS011;6522;49.622;6.126;2023-02-15T18:06:20;40.58;;;28.75;;
12908;SDS011;6522;49.622;6.126;2023-02-15T18:09:25;36.40;;;26.83;;
12908;SDS011;6522;49.622;6.126;2023-02-15T18:12:32;35.83;;;28.67;;
12908;SDS011;6522;49.622;6.126;2023-02-15T18:15:17;59.70;;;26.55;;
12908;SDS011;6522;49.622;6.126;2023-02-15T18:18:04;35.53;;;27.83;;
12908;SDS011;6522;49.622;6.126;2023-02-15T18:20:50;37.55;;;26.95;;
12908;SDS011;6522;49.622;6.126;2023-02-15T18:23:38;34.40;;;27.35;;
12908;SDS011;6522;49.622;6.126;2023-02-15T18:26:25;39.40;;;27.65;;
12908;SDS011;6522;49.622;6.126;2023-02-15T18:29:11;34.15;;;27.80;;
12908;SDS011;6522;49.622;6.126;2023-02-15T18:31:58;34.72;;;28.30;;
12908;SDS011;6522;49.622;6.126;2023-02-15T18:34:45;41.75;;;29.12;;
12908;SDS011;6522;49.622;6.126;2023-02-15T18:37:31;35.67;;;27.52;;
12908;SDS011;6522;49.622;6.126;2023-02-15T18:40:19;38.28;;;28.42;;
12908;SDS011;6522;49.622;6.126;2023-02-15T18:43:08;37.67;;;28.58;;
12908;SDS011;6522;49.622;6.126;2023-02-15T18:45:52;31.92;;;27.20;;
12908;SDS011;6522;49.622;6.126;2023-02-15T18:48:39;38.10;;;29.45;;
12908;SDS011;6522;49.622;6.126;2023-02-15T18:51:26;38.22;;;29.42;;